createdAt,value
2022-08-28T00:01:35.273Z,21.67
2022-08-28T00:04:08.239Z,21.65
2022-08-28T00:06:40.109Z,21.60
2022-08-28T00:09:13.164Z,21.59
2022-08-28T00:11:44.964Z,21.56
2022-08-28T00:14:21.644Z,21.53
2022-08-28T00:16:54.715Z,21.52
2022-08-28T00:19:26.760Z,21.48
2022-08-28T00:21:58.560Z,21.43
2022-08-28T00:24:30.623Z,21.39
2022-08-28T00:27:20.405Z,21.37
2022-08-28T00:29:52.376Z,21.33
2022-08-28T00:32:25.342Z,21.32
2022-08-28T00:34:58.809Z,21.29
2022-08-28T00:37:30.854Z,21.24
2022-08-28T00:40:02.754Z,21.19
2022-08-28T00:42:39.384Z,21.14
2022-08-28T00:45:15.489Z,21.11
2022-08-28T00:47:47.653Z,21.09
2022-08-28T00:50:25.564Z,21.08
2022-08-28T00:53:01.845Z,21.07
2022-08-28T00:55:33.817Z,21.03
2022-08-28T00:58:06.958Z,20.99
2022-08-28T01:00:42.885Z,20.98
2022-08-28T01:03:14.833Z,20.96
2022-08-28T01:05:49.395Z,20.95
2022-08-28T01:08:21.373Z,20.95
2022-08-28T01:10:59.730Z,20.95
2022-08-28T01:13:32.633Z,20.93
2022-08-28T01:16:06.715Z,20.88
2022-08-28T01:18:39.466Z,20.85
2022-08-28T01:21:20.834Z,20.79
2022-08-28T01:23:58.951Z,20.74
2022-08-28T01:26:32.383Z,20.70
2022-08-28T01:29:05.020Z,20.68
2022-08-28T01:31:40.703Z,20.64
2022-08-28T01:34:14.121Z,20.58
2022-08-28T01:36:47.844Z,20.57
2022-08-28T01:39:23.630Z,20.61
2022-08-28T01:41:58.805Z,20.58
2022-08-28T01:44:31.379Z,20.58
2022-08-28T01:47:03.492Z,20.56
2022-08-28T01:49:35.421Z,20.55
2022-08-28T01:52:11.776Z,20.53
2022-08-28T01:54:43.687Z,20.53
2022-08-28T01:57:15.600Z,20.51
2022-08-28T01:59:49.510Z,20.50
2022-08-28T02:02:22.495Z,20.53
2022-08-28T02:04:54.582Z,20.55
2022-08-28T02:07:26.525Z,20.58
2022-08-28T02:09:58.494Z,20.59
2022-08-28T02:12:32.825Z,20.62
2022-08-28T02:15:05.040Z,20.57
2022-08-28T02:17:37.250Z,20.50
2022-08-28T02:20:10.516Z,20.50
2022-08-28T02:22:49.382Z,20.51
2022-08-28T02:25:21.413Z,20.51
2022-08-28T02:27:53.427Z,20.55
2022-08-28T02:30:27.489Z,20.55
2022-08-28T02:33:01.870Z,20.55
2022-08-28T02:35:34.310Z,20.52
2022-08-28T02:38:06.382Z,20.47
2022-08-28T02:40:38.366Z,20.45
2022-08-28T02:43:12.192Z,20.49
2022-08-28T02:45:43.977Z,20.52
2022-08-28T02:48:17.431Z,20.54
2022-08-28T02:50:49.928Z,20.57
2022-08-28T02:53:25.110Z,20.63
2022-08-28T02:55:57.398Z,20.67
2022-08-28T02:58:30.102Z,20.67
2022-08-28T03:01:02.734Z,20.63
2022-08-28T03:03:37.388Z,20.58
2022-08-28T03:06:13.828Z,20.57
2022-08-28T03:08:46.343Z,20.56
2022-08-28T03:11:18.225Z,20.57
2022-08-28T03:13:50.879Z,20.58
2022-08-28T03:16:22.909Z,20.62
2022-08-28T03:18:54.910Z,20.64
2022-08-28T03:21:27.258Z,20.62
2022-08-28T03:24:00.793Z,20.62
2022-08-28T03:26:32.856Z,20.60
2022-08-28T03:29:04.791Z,20.60
2022-08-28T03:31:36.656Z,20.56
2022-08-28T03:34:09.805Z,20.51
2022-08-28T03:36:41.596Z,20.52
2022-08-28T03:39:13.980Z,20.50
2022-08-28T03:41:45.814Z,20.48
2022-08-28T03:44:20.254Z,20.46
2022-08-28T03:46:52.110Z,20.45
2022-08-28T03:49:24.727Z,20.48
2022-08-28T03:51:56.585Z,20.49
2022-08-28T03:54:32.165Z,20.51
2022-08-28T03:57:04.027Z,20.53
2022-08-28T03:59:36.488Z,20.55
2022-08-28T04:02:08.224Z,20.54
2022-08-28T04:04:40.494Z,20.50
2022-08-28T04:07:12.336Z,20.46
2022-08-28T04:09:44.255Z,20.49
2022-08-28T04:12:16.425Z,20.56
2022-08-28T04:14:48.210Z,20.65
2022-08-28T04:17:20.123Z,20.68
2022-08-28T04:19:55.210Z,20.78
2022-08-28T04:22:27.626Z,20.87
2022-08-28T04:25:00.408Z,20.91
2022-08-28T04:27:32.294Z,20.97
2022-08-28T04:30:09.862Z,21.06
2022-08-28T04:32:42.160Z,21.22
2022-08-28T04:35:17.529Z,21.32
2022-08-28T04:37:50.269Z,21.32
2022-08-28T04:40:28.518Z,21.33
2022-08-28T04:43:00.372Z,21.35
2022-08-28T04:45:32.283Z,21.45
2022-08-28T04:48:05.484Z,21.56
2022-08-28T04:50:47.819Z,21.62
2022-08-28T04:53:21.566Z,21.62
2022-08-28T04:55:55.334Z,21.64
2022-08-28T04:58:27.534Z,21.71
2022-08-28T05:01:01.490Z,21.73
2022-08-28T05:03:33.665Z,21.77
2022-08-28T05:06:06.683Z,21.76
2022-08-28T05:08:38.662Z,21.78
2022-08-28T05:11:30.714Z,21.83
2022-08-28T05:14:08.350Z,21.81
2022-08-28T05:16:46.048Z,21.77
2022-08-28T05:19:19.444Z,21.81
2022-08-28T05:21:53.778Z,21.81
2022-08-28T05:24:25.554Z,21.75
2022-08-28T05:26:57.787Z,21.71
2022-08-28T05:29:29.930Z,21.67
2022-08-28T05:32:02.708Z,21.65
2022-08-28T05:34:35.233Z,21.66
2022-08-28T05:37:09.065Z,21.67
2022-08-28T05:39:40.915Z,21.72
2022-08-28T05:42:13.795Z,21.72
2022-08-28T05:44:45.732Z,21.70
2022-08-28T05:47:18.238Z,21.75
2022-08-28T05:49:53.674Z,21.77
2022-08-28T05:52:25.442Z,21.74
2022-08-28T05:54:57.356Z,21.75
2022-08-28T05:57:30.289Z,21.77
2022-08-28T06:00:02.392Z,21.78
2022-08-28T06:02:35.235Z,21.82
2022-08-28T06:05:08.147Z,21.85
2022-08-28T06:07:41.143Z,21.79
2022-08-28T06:10:13.503Z,21.79
2022-08-28T06:12:46.738Z,21.79
2022-08-28T06:15:19.006Z,21.82
2022-08-28T06:17:50.826Z,21.82
2022-08-28T06:20:23.330Z,21.81
2022-08-28T06:22:58.624Z,21.78
2022-08-28T06:25:31.292Z,21.78
2022-08-28T06:28:04.650Z,21.82
2022-08-28T06:30:40.042Z,21.85
2022-08-28T06:33:16.487Z,21.92
2022-08-28T06:35:53.951Z,21.97
2022-08-28T06:38:31.634Z,22.06
2022-08-28T06:41:03.423Z,22.13
2022-08-28T06:43:36.116Z,22.15
2022-08-28T06:46:08.755Z,22.14
2022-08-28T06:48:40.864Z,22.13
2022-08-28T06:51:14.873Z,22.14
2022-08-28T06:53:48.039Z,22.19
2022-08-28T06:56:26.865Z,22.25
2022-08-28T06:59:00.671Z,22.33
2022-08-28T07:01:34.951Z,22.36
2022-08-28T07:04:10.442Z,22.37
2022-08-28T07:06:46.830Z,22.38
2022-08-28T07:09:19.286Z,22.42
2022-08-28T07:11:51.202Z,22.41
2022-08-28T07:14:23.389Z,22.43
2022-08-28T07:16:57.830Z,22.40
2022-08-28T07:19:29.863Z,22.38
2022-08-28T07:22:02.639Z,22.36
2022-08-28T07:24:34.801Z,22.42
2022-08-28T07:27:07.005Z,22.46
2022-08-28T07:29:39.594Z,22.47
2022-08-28T07:32:11.875Z,22.43
2022-08-28T07:34:43.972Z,22.38
2022-08-28T07:37:15.997Z,22.37
2022-08-28T07:39:47.843Z,22.37
2022-08-28T07:42:35.681Z,22.34
2022-08-28T07:45:09.610Z,22.31
2022-08-28T07:47:43.211Z,22.33
2022-08-28T07:50:22.859Z,22.38
2022-08-28T07:52:54.960Z,22.40
2022-08-28T07:55:29.792Z,22.44
2022-08-28T07:58:02.411Z,22.39
2022-08-28T08:00:37.594Z,22.35
2022-08-28T08:03:09.549Z,22.34
2022-08-28T08:05:41.662Z,22.31
2022-08-28T08:08:13.684Z,22.28
2022-08-28T08:10:47.442Z,22.26
2022-08-28T08:13:19.559Z,22.25
2022-08-28T08:15:51.434Z,22.24
2022-08-28T08:18:23.404Z,22.23
2022-08-28T08:20:57.803Z,22.20
2022-08-28T08:23:29.981Z,22.21
2022-08-28T08:26:03.948Z,22.20
2022-08-28T08:28:37.724Z,22.23
2022-08-28T08:31:12.925Z,22.29
2022-08-28T08:33:47.886Z,22.28
2022-08-28T08:36:22.269Z,22.25
2022-08-28T08:38:59.165Z,22.22
2022-08-28T08:41:35.866Z,22.19
2022-08-28T08:44:33.270Z,22.16
2022-08-28T08:47:14.793Z,22.14
2022-08-28T08:49:55.741Z,22.14
2022-08-28T08:52:44.091Z,22.14
2022-08-28T08:55:31.658Z,22.11
2022-08-28T08:58:07.763Z,22.12
2022-08-28T09:00:51.669Z,22.13
2022-08-28T09:03:27.061Z,22.14
2022-08-28T09:06:03.390Z,22.21
2022-08-28T09:08:42.496Z,22.28
2022-08-28T09:11:24.141Z,22.36
2022-08-28T09:14:04.201Z,22.43
2022-08-28T09:16:42.853Z,22.47
2022-08-28T09:19:19.838Z,22.49
2022-08-28T09:21:54.854Z,22.52
2022-08-28T09:24:32.036Z,22.50
2022-08-28T09:27:08.951Z,22.52
2022-08-28T09:29:44.412Z,22.51
2022-08-28T09:32:27.109Z,22.50
2022-08-28T09:35:15.167Z,22.47
2022-08-28T09:37:47.638Z,22.46
2022-08-28T09:40:29.680Z,22.48
2022-08-28T09:43:25.636Z,22.48
2022-08-28T09:46:01.865Z,22.44
2022-08-28T09:48:39.494Z,22.46
2022-08-28T09:51:14.509Z,22.49
2022-08-28T09:54:03.099Z,22.48
2022-08-28T09:56:36.951Z,22.42
2022-08-28T09:59:13.352Z,22.35
2022-08-28T10:02:01.905Z,22.28
2022-08-28T10:04:57.748Z,22.23
2022-08-28T10:07:39.478Z,22.17
2022-08-28T10:10:29.910Z,22.17
2022-08-28T10:13:07.656Z,22.20
2022-08-28T10:15:55.364Z,22.28
2022-08-28T10:18:38.479Z,22.39
2022-08-28T10:21:19.976Z,22.43
2022-08-28T10:24:30.537Z,22.42
2022-08-28T10:27:05.423Z,22.38
2022-08-28T10:29:49.702Z,22.41
2022-08-28T10:32:49.193Z,22.50
2022-08-28T10:35:25.590Z,22.66
2022-08-28T10:38:06.802Z,22.74
2022-08-28T10:40:52.443Z,22.78
2022-08-28T10:43:34.277Z,22.80
2022-08-28T10:46:13.584Z,22.79
2022-08-28T10:48:48.927Z,22.72
2022-08-28T10:51:34.708Z,22.74
2022-08-28T10:54:13.752Z,22.72
2022-08-28T10:56:56.572Z,22.73
2022-08-28T10:59:31.956Z,22.80
2022-08-28T11:02:06.534Z,22.87
2022-08-28T11:04:38.559Z,22.94
2022-08-28T11:07:14.670Z,22.94
2022-08-28T11:09:49.474Z,22.90
2022-08-28T11:12:39.080Z,22.97
2022-08-28T11:15:43.400Z,23.03
2022-08-28T11:18:41.460Z,23.16
2022-08-28T11:21:20.107Z,23.20
2022-08-28T11:23:59.195Z,23.21
2022-08-28T11:26:39.152Z,23.21
2022-08-28T11:29:10.989Z,23.18
2022-08-28T11:31:43.518Z,23.19
2022-08-28T11:34:45.886Z,23.18
2022-08-28T11:37:42.787Z,23.14
2022-08-28T11:40:23.816Z,23.10
2022-08-28T11:43:16.187Z,23.04
2022-08-28T11:46:12.981Z,23.01
2022-08-28T11:48:52.275Z,23.04
2022-08-28T11:51:56.069Z,23.00
2022-08-28T11:54:48.559Z,22.85
2022-08-28T11:57:24.816Z,22.70
2022-08-28T12:00:11.710Z,22.53
2022-08-28T12:03:10.127Z,22.35
2022-08-28T12:05:48.824Z,22.22
2022-08-28T12:09:12.921Z,22.20
2022-08-28T12:11:59.778Z,22.09
2022-08-28T12:15:02.473Z,21.98
2022-08-28T12:18:00.755Z,21.92
2022-08-28T12:20:40.712Z,21.92
2022-08-28T12:23:40.888Z,21.90
2022-08-28T12:26:23.803Z,21.85
2022-08-28T12:28:58.279Z,21.82
2022-08-28T12:32:13.052Z,21.84
2022-08-28T12:34:51.328Z,21.83
2022-08-28T12:37:36.809Z,21.80
2022-08-28T12:40:29.685Z,21.73
2022-08-28T12:43:04.716Z,21.64
2022-08-28T12:45:41.011Z,21.56
2022-08-28T12:48:23.242Z,21.50
2022-08-28T12:51:03.184Z,21.48
2022-08-28T12:53:45.295Z,21.41
2022-08-28T12:56:19.954Z,21.36
2022-08-28T12:58:52.778Z,21.36
2022-08-28T13:01:32.133Z,21.33
2022-08-28T13:04:06.356Z,21.33
2022-08-28T13:06:40.155Z,21.31
2022-08-28T13:09:20.458Z,21.29
2022-08-28T13:11:53.798Z,21.28
2022-08-28T13:14:41.991Z,21.29
2022-08-28T13:17:15.681Z,21.33
2022-08-28T13:20:02.486Z,21.35
2022-08-28T13:22:41.959Z,21.33
2022-08-28T13:25:26.773Z,21.29
2022-08-28T13:28:01.600Z,21.22
2022-08-28T13:30:36.717Z,21.17
2022-08-28T13:33:21.833Z,21.13
2022-08-28T13:35:55.277Z,21.09
2022-08-28T13:38:27.502Z,21.07
2022-08-28T13:41:03.999Z,21.10
2022-08-28T13:43:47.489Z,21.04
2022-08-28T13:46:20.225Z,21.01
2022-08-28T13:48:52.181Z,21.05
2022-08-28T13:51:26.575Z,21.10
2022-08-28T13:53:58.682Z,21.11
2022-08-28T13:56:32.839Z,21.08
2022-08-28T13:59:05.602Z,21.07
2022-08-28T14:01:55.333Z,21.10
2022-08-28T14:04:27.702Z,21.10
2022-08-28T14:06:59.798Z,21.11
2022-08-28T14:09:31.721Z,21.15
2022-08-28T14:12:04.007Z,21.18
2022-08-28T14:14:36.057Z,21.17
2022-08-28T14:17:09.915Z,21.13
2022-08-28T14:19:41.863Z,21.13
2022-08-28T14:22:15.331Z,21.17
2022-08-28T14:24:47.325Z,21.19
2022-08-28T14:27:19.355Z,21.17
2022-08-28T14:30:06.373Z,21.18
2022-08-28T14:32:40.304Z,21.19
2022-08-28T14:35:12.850Z,21.24
2022-08-28T14:37:45.138Z,21.28
2022-08-28T14:40:17.394Z,21.30
2022-08-28T14:42:58.432Z,21.33
2022-08-28T14:45:30.378Z,21.32
2022-08-28T14:48:02.365Z,21.31
2022-08-28T14:50:34.132Z,21.29
2022-08-28T14:53:06.478Z,21.27
2022-08-28T14:55:44.342Z,21.20
2022-08-28T14:58:17.899Z,21.18
2022-08-28T15:00:51.582Z,21.12
2022-08-28T15:03:23.519Z,21.08
2022-08-28T15:06:04.859Z,21.02
2022-08-28T15:08:38.276Z,21.02
2022-08-28T15:11:14.242Z,21.07
2022-08-28T15:13:52.506Z,21.05
2022-08-28T15:16:29.847Z,21.00
2022-08-28T15:19:04.317Z,20.97
2022-08-28T15:21:38.485Z,20.95
2022-08-28T15:24:11.565Z,20.95
2022-08-28T15:26:43.836Z,20.94
2022-08-28T15:29:15.796Z,20.95
2022-08-28T15:31:50.226Z,20.96
2022-08-28T15:34:24.355Z,20.96
2022-08-28T15:36:57.693Z,20.99
2022-08-28T15:39:47.948Z,21.03
2022-08-28T15:42:20.052Z,21.00
2022-08-28T15:44:52.034Z,20.99
2022-08-28T15:47:23.877Z,21.05
2022-08-28T15:49:58.620Z,21.08
2022-08-28T15:52:30.547Z,21.18
2022-08-28T15:55:02.777Z,21.29
2022-08-28T15:57:34.690Z,21.41
2022-08-28T16:00:17.060Z,21.51
2022-08-28T16:02:49.203Z,21.58
2022-08-28T16:05:21.161Z,21.62
2022-08-28T16:07:53.013Z,21.65
2022-08-28T16:10:29.196Z,21.67
2022-08-28T16:13:01.235Z,21.71
2022-08-28T16:15:33.118Z,21.76
2022-08-28T16:18:08.958Z,21.82
2022-08-28T16:20:43.005Z,21.87
2022-08-28T16:23:15.455Z,21.88
2022-08-28T16:25:47.568Z,21.90
2022-08-28T16:28:19.596Z,21.86
2022-08-28T16:30:52.562Z,21.85
2022-08-28T16:33:26.594Z,21.85
2022-08-28T16:35:59.103Z,21.88
2022-08-28T16:38:31.083Z,21.87
2022-08-28T16:41:03.966Z,21.85
2022-08-28T16:43:35.755Z,21.85
2022-08-28T16:46:12.704Z,21.86
2022-08-28T16:48:45.347Z,21.86
2022-08-28T16:51:18.752Z,21.85
2022-08-28T16:53:51.553Z,21.85
2022-08-28T16:56:24.643Z,21.81
2022-08-28T16:58:57.168Z,21.83
2022-08-28T17:01:29.398Z,21.86
2022-08-28T17:04:01.852Z,21.87
2022-08-28T17:06:35.663Z,21.87
2022-08-28T17:09:07.561Z,21.83
2022-08-28T17:11:39.751Z,21.80
2022-08-28T17:14:12.185Z,21.79
2022-08-28T17:16:47.499Z,21.79
2022-08-28T17:19:24.938Z,21.77
2022-08-28T17:22:15.139Z,21.76
2022-08-28T17:24:47.118Z,21.74
2022-08-28T17:27:22.648Z,21.70
2022-08-28T17:29:54.787Z,21.68
2022-08-28T17:32:26.999Z,21.66
2022-08-28T17:34:58.757Z,21.62
2022-08-28T17:37:31.758Z,21.60
2022-08-28T17:40:03.980Z,21.56
2022-08-28T17:42:38.890Z,21.53
2022-08-28T17:45:15.503Z,21.50
2022-08-28T17:47:47.446Z,21.43
2022-08-28T17:50:20.265Z,21.39
2022-08-28T17:52:54.830Z,21.36
2022-08-28T17:55:26.746Z,21.32
2022-08-28T17:57:59.110Z,21.27
2022-08-28T18:00:31.513Z,21.22
2022-08-28T18:03:03.875Z,21.16
2022-08-28T18:05:37.118Z,21.06
2022-08-28T18:08:10.248Z,21.01
2022-08-28T18:10:42.319Z,20.97
2022-08-28T18:13:15.210Z,20.94
2022-08-28T18:15:56.553Z,20.91
2022-08-28T18:18:36.389Z,20.89
2022-08-28T18:21:09.913Z,20.88
2022-08-28T18:23:42.278Z,20.89
2022-08-28T18:26:14.549Z,20.92
2022-08-28T18:28:46.553Z,20.94
2022-08-28T18:31:19.807Z,20.96
2022-08-28T18:33:55.990Z,20.97
2022-08-28T18:36:27.271Z,20.99
2022-08-28T18:38:59.520Z,21.00
2022-08-28T18:41:44.000Z,21.01
2022-08-28T18:44:23.670Z,21.02
2022-08-28T18:46:56.386Z,21.05
2022-08-28T18:49:29.064Z,21.06
2022-08-28T18:52:01.075Z,21.05
2022-08-28T18:54:33.432Z,21.03
2022-08-28T18:57:05.719Z,21.00
2022-08-28T18:59:38.023Z,20.92
2022-08-28T19:02:10.231Z,20.81
2022-08-28T19:04:44.721Z,20.70
2022-08-28T19:07:17.373Z,20.61
2022-08-28T19:09:49.442Z,20.54
2022-08-28T19:12:21.487Z,20.53
2022-08-28T19:14:57.787Z,20.55
2022-08-28T19:17:30.892Z,20.57
2022-08-28T19:20:25.904Z,20.59
2022-08-28T19:22:58.785Z,20.55
2022-08-28T19:25:32.607Z,20.51
2022-08-28T19:28:06.687Z,20.43
2022-08-28T19:30:40.036Z,20.39
2022-08-28T19:33:12.787Z,20.34
2022-08-28T19:35:46.211Z,20.27
2022-08-28T19:38:18.390Z,20.19
2022-08-28T19:40:52.148Z,20.06
2022-08-28T19:43:24.184Z,19.98
2022-08-28T19:46:14.448Z,19.88
2022-08-28T19:48:53.547Z,19.81
2022-08-28T19:51:27.287Z,19.73
2022-08-28T19:53:59.441Z,19.70
2022-08-28T19:56:34.569Z,19.63
2022-08-28T19:59:09.015Z,19.54
2022-08-28T20:01:44.946Z,19.49
2022-08-28T20:04:17.899Z,19.46
2022-08-28T20:06:50.187Z,19.43
2022-08-28T20:09:22.190Z,19.38
2022-08-28T20:11:54.014Z,19.33
2022-08-28T20:14:27.606Z,19.26
2022-08-28T20:17:00.949Z,19.19
2022-08-28T20:19:33.529Z,19.14
2022-08-28T20:22:06.299Z,19.10
2022-08-28T20:24:39.316Z,19.06
2022-08-28T20:27:11.734Z,19.00
2022-08-28T20:29:43.783Z,18.97
2022-08-28T20:32:16.705Z,18.92
2022-08-28T20:34:48.694Z,18.91
2022-08-28T20:37:20.923Z,18.87
2022-08-28T20:39:56.908Z,18.85
2022-08-28T20:42:31.983Z,18.82
2022-08-28T20:45:05.500Z,18.76
2022-08-28T20:47:37.734Z,18.71
2022-08-28T20:50:11.469Z,18.67
2022-08-28T20:52:49.310Z,18.61
2022-08-28T20:55:21.298Z,18.59
2022-08-28T20:57:55.889Z,18.57
2022-08-28T21:00:31.641Z,18.51
2022-08-28T21:03:04.598Z,18.46
2022-08-28T21:05:36.415Z,18.42
2022-08-28T21:08:08.846Z,18.39
2022-08-28T21:10:46.191Z,18.38
2022-08-28T21:13:18.379Z,18.38
2022-08-28T21:15:50.322Z,18.37
2022-08-28T21:18:22.204Z,18.33
2022-08-28T21:20:55.684Z,18.29
2022-08-28T21:23:28.589Z,18.27
2022-08-28T21:26:00.598Z,18.24
2022-08-28T21:28:32.554Z,18.19
2022-08-28T21:31:08.984Z,18.15
2022-08-28T21:33:41.308Z,18.10
2022-08-28T21:36:16.362Z,18.06
2022-08-28T21:38:48.286Z,18.02
2022-08-28T21:41:20.195Z,18.00
2022-08-28T21:43:56.975Z,18.03
2022-08-28T21:46:29.235Z,18.01
2022-08-28T21:49:01.376Z,17.98
2022-08-28T21:51:33.312Z,17.93
2022-08-28T21:54:05.573Z,17.90
2022-08-28T21:56:37.542Z,17.86
2022-08-28T21:59:09.607Z,17.82
2022-08-28T22:01:41.599Z,17.81
2022-08-28T22:04:14.476Z,17.78
2022-08-28T22:06:46.271Z,17.76
2022-08-28T22:09:18.592Z,17.74
2022-08-28T22:11:50.545Z,17.71
2022-08-28T22:14:25.270Z,17.70
2022-08-28T22:16:57.288Z,17.71
2022-08-28T22:19:29.272Z,17.70
2022-08-28T22:22:18.893Z,17.68
2022-08-28T22:24:50.843Z,17.66
2022-08-28T22:27:23.154Z,17.66
2022-08-28T22:29:55.277Z,17.67
2022-08-28T22:32:27.971Z,17.67
2022-08-28T22:35:00.656Z,17.67
2022-08-28T22:37:32.579Z,17.69
2022-08-28T22:40:13.289Z,17.72
2022-08-28T22:42:45.580Z,17.73
2022-08-28T22:45:17.811Z,17.74
2022-08-28T22:47:50.288Z,17.76
2022-08-28T22:50:28.982Z,17.74
2022-08-28T22:53:02.725Z,17.72
2022-08-28T22:55:38.923Z,17.70
2022-08-28T22:58:15.108Z,17.68
2022-08-28T23:00:50.523Z,17.68
2022-08-28T23:03:22.332Z,17.67
2022-08-28T23:05:54.628Z,17.66
2022-08-28T23:08:29.637Z,17.64
2022-08-28T23:11:07.644Z,17.63
2022-08-28T23:13:40.205Z,17.62
2022-08-28T23:16:12.195Z,17.62
2022-08-28T23:19:07.528Z,17.62
2022-08-28T23:21:39.378Z,17.61
2022-08-28T23:24:16.717Z,17.59
2022-08-28T23:26:49.068Z,17.57
2022-08-28T23:29:20.962Z,17.54
2022-08-28T23:31:53.792Z,17.50
2022-08-28T23:34:26.472Z,17.48
2022-08-28T23:36:59.293Z,17.46
2022-08-28T23:39:32.783Z,17.44
2022-08-28T23:42:07.339Z,17.42
2022-08-28T23:44:39.511Z,17.40
2022-08-28T23:47:14.635Z,17.37
2022-08-28T23:49:46.585Z,17.35
2022-08-28T23:52:19.334Z,17.31
2022-08-28T23:54:52.661Z,17.25
2022-08-28T23:57:25.142Z,17.18
2022-08-28T23:59:57.105Z,17.09
